createdAt,value
2018-09-19T03:00:59.058Z,0.00
2018-09-19T03:01:59.756Z,0.00
2018-09-19T03:02:57.913Z,0.00
2018-09-19T03:03:58.150Z,0.00
2018-09-19T03:04:58.343Z,0.00
2018-09-19T03:05:58.409Z,0.00
2018-09-19T03:06:58.624Z,0.00
2018-09-19T03:07:59.803Z,0.00
2018-09-19T03:08:59.251Z,0.00
2018-09-19T03:09:59.135Z,0.00
2018-09-19T03:10:59.402Z,0.00
2018-09-19T03:11:59.515Z,0.00
2018-09-19T03:12:59.617Z,0.00
2018-09-19T03:13:59.830Z,0.00
2018-09-19T03:15:00.058Z,0.00
2018-09-19T03:16:00.281Z,0.00
2018-09-19T03:17:00.369Z,0.00
2018-09-19T03:18:00.479Z,0.00
2018-09-19T03:19:00.705Z,0.00
2018-09-19T03:20:00.765Z,0.00
2018-09-19T03:21:00.951Z,0.00
2018-09-19T03:22:01.152Z,0.00
2018-09-19T03:23:01.402Z,0.00
2018-09-19T03:24:01.529Z,0.00
2018-09-19T03:25:01.852Z,0.00
2018-09-19T03:26:02.024Z,0.00
2018-09-19T03:27:02.214Z,0.00
2018-09-19T03:28:02.270Z,0.00
2018-09-19T03:29:02.488Z,0.00
2018-09-19T03:30:02.670Z,0.00
2018-09-19T03:31:02.784Z,0.00
2018-09-19T03:32:03.037Z,0.00
2018-09-19T03:33:03.135Z,0.00
2018-09-19T03:34:03.522Z,0.00
2018-09-19T03:35:03.465Z,0.00
2018-09-19T03:36:03.658Z,0.00
2018-09-19T03:37:03.791Z,0.00
2018-09-19T03:38:03.999Z,0.00
2018-09-19T03:39:04.266Z,0.00
2018-09-19T03:40:04.341Z,0.00
2018-09-19T03:41:04.550Z,0.00
2018-09-19T03:42:04.747Z,0.00
2018-09-19T03:43:04.931Z,0.00
2018-09-19T03:44:05.119Z,0.00
2018-09-19T03:45:05.359Z,0.00
2018-09-19T03:46:05.515Z,0.00
2018-09-19T03:47:05.612Z,0.00
2018-09-19T03:48:06.560Z,0.00
2018-09-19T03:49:06.109Z,0.00
2018-09-19T03:50:06.096Z,0.00
2018-09-19T03:51:06.334Z,0.00
2018-09-19T03:52:06.416Z,0.00
2018-09-19T03:53:06.650Z,0.00
2018-09-19T03:54:06.755Z,0.00
2018-09-19T03:55:06.950Z,0.00
2018-09-19T03:56:07.079Z,0.00
2018-09-19T03:57:07.328Z,0.00
2018-09-19T03:58:07.552Z,0.00
2018-09-19T03:59:07.775Z,0.00
2018-09-19T04:00:07.699Z,0.00
2018-09-19T04:01:08.755Z,0.00
2018-09-19T04:02:08.137Z,0.00
2018-09-19T04:03:08.423Z,0.00
2018-09-19T04:04:08.554Z,0.00
2018-09-19T04:05:08.740Z,0.00
2018-09-19T04:06:09.007Z,0.00
2018-09-19T04:07:09.069Z,0.00
2018-09-19T04:08:09.292Z,0.00
2018-09-19T04:09:09.459Z,0.00
2018-09-19T04:10:09.634Z,0.00
2018-09-19T04:11:09.887Z,0.00
2018-09-19T04:12:09.983Z,0.00
2018-09-19T04:13:10.199Z,0.00
2018-09-19T04:14:10.269Z,0.00
2018-09-19T04:15:10.678Z,0.00
2018-09-19T04:16:10.676Z,0.00
2018-09-19T04:17:11.564Z,0.00
2018-09-19T04:18:11.024Z,0.00
2018-09-19T04:19:13.389Z,0.00
2018-09-19T04:20:11.533Z,0.00
2018-09-19T04:21:13.259Z,0.00
2018-09-19T04:22:12.024Z,0.00
2018-09-19T04:23:13.208Z,0.00
2018-09-19T04:24:17.497Z,0.00
2018-09-19T04:25:12.984Z,0.00
2018-09-19T04:26:13.237Z,0.00
2018-09-19T04:29:01.373Z,0.00
2018-09-19T04:30:01.740Z,0.00
2018-09-19T04:31:02.317Z,0.00
2018-09-19T04:32:00.792Z,0.00
2018-09-19T04:33:01.390Z,4.00
2018-09-19T04:34:02.119Z,4.00
2018-09-19T04:35:01.526Z,0.00
2018-09-19T04:35:59.316Z,4.00
2018-09-19T04:36:58.631Z,4.00
2018-09-19T04:37:58.931Z,4.00
2018-09-19T04:38:58.778Z,4.00
2018-09-19T04:39:59.424Z,8.00
2018-09-19T04:41:14.412Z,8.00
2018-09-19T04:42:02.211Z,8.00
2018-09-19T04:43:02.916Z,12.00
2018-09-19T04:44:03.174Z,12.00
2018-09-19T04:45:03.352Z,16.00
2018-09-19T04:46:03.309Z,16.00
2018-09-19T04:47:03.413Z,20.00
2018-09-19T04:49:05.015Z,28.00
2018-09-19T04:50:03.898Z,36.00
2018-09-19T04:51:03.402Z,40.00
2018-09-19T04:52:03.859Z,44.00
2018-09-19T04:53:04.897Z,56.00
2018-09-19T04:54:06.175Z,64.00
2018-09-19T04:55:03.750Z,68.00
2018-09-19T04:56:02.155Z,80.00
2018-09-19T04:57:03.790Z,92.00
2018-09-19T04:58:03.216Z,104.00
2018-09-19T04:59:02.476Z,112.00
2018-09-19T05:00:02.735Z,128.00
2018-09-19T05:01:03.158Z,144.00
2018-09-19T05:02:03.102Z,156.00
2018-09-19T05:03:03.223Z,176.00
2018-09-19T05:04:03.365Z,192.00
2018-09-19T05:05:03.618Z,212.00
2018-09-19T05:06:03.813Z,228.00
2018-09-19T05:07:04.016Z,256.00
2018-09-19T05:08:04.051Z,276.00
2018-09-19T05:09:04.420Z,304.00
2018-09-19T05:10:04.361Z,332.00
2018-09-19T05:11:04.669Z,360.00
2018-09-19T05:12:05.123Z,392.00
2018-09-19T05:13:05.121Z,428.00
2018-09-19T05:14:06.125Z,468.00
2018-09-19T05:15:05.210Z,508.00
2018-09-19T05:16:05.763Z,552.00
2018-09-19T05:17:05.907Z,600.00
2018-09-19T05:18:05.739Z,644.00
2018-09-19T05:19:06.384Z,696.00
2018-09-19T05:20:06.631Z,748.00
2018-09-19T05:21:06.308Z,808.00
2018-09-19T05:22:06.459Z,864.00
2018-09-19T05:23:08.178Z,916.00
2018-09-19T05:24:07.261Z,964.00
2018-09-19T05:25:06.915Z,1016.00
2018-09-19T05:26:07.368Z,1068.00
2018-09-19T05:27:09.482Z,1120.00
2018-09-19T05:28:07.445Z,1172.00
2018-09-19T05:29:07.697Z,1224.00
2018-09-19T05:30:19.663Z,1276.00
2018-09-19T05:31:10.698Z,1324.00
2018-09-19T05:32:11.265Z,1376.00
2018-09-19T05:33:09.058Z,1428.00
2018-09-19T05:34:08.647Z,1480.00
2018-09-19T05:35:09.364Z,1536.00
2018-09-19T05:36:08.896Z,1596.00
2018-09-19T05:37:09.182Z,1652.00
2018-09-19T05:38:09.283Z,1700.00
2018-09-19T05:39:09.363Z,1756.00
2018-09-19T05:40:10.410Z,1808.00
2018-09-19T05:41:11.616Z,1864.00
2018-09-19T05:42:21.779Z,1920.00
2018-09-19T05:43:12.713Z,1984.00
2018-09-19T05:44:13.405Z,2040.00
2018-09-19T05:45:12.507Z,2096.00
2018-09-19T05:46:13.863Z,2144.00
2018-09-19T05:47:14.673Z,2180.00
2018-09-19T05:48:12.370Z,2212.00
2018-09-19T05:49:10.980Z,2236.00
2018-09-19T05:50:11.795Z,2264.00
2018-09-19T05:51:11.221Z,2292.00
2018-09-19T05:52:11.328Z,2328.00
2018-09-19T05:53:11.546Z,2360.00
2018-09-19T05:54:11.652Z,2388.00
2018-09-19T05:55:11.960Z,2400.00
2018-09-19T05:56:12.051Z,2400.00
2018-09-19T05:57:12.264Z,2400.00
2018-09-19T05:58:12.389Z,2380.00
2018-09-19T05:59:12.493Z,2376.00
2018-09-19T06:00:12.719Z,2392.00
2018-09-19T06:01:12.885Z,2428.00
2018-09-19T06:02:13.042Z,2460.00
2018-09-19T06:03:13.206Z,2500.00
2018-09-19T06:04:13.366Z,2540.00
2018-09-19T06:05:13.528Z,2580.00
2018-09-19T06:06:13.799Z,2624.00
2018-09-19T06:07:13.945Z,2668.00
2018-09-19T06:08:14.091Z,2716.00
2018-09-19T06:09:14.265Z,2772.00
2018-09-19T06:10:14.412Z,2836.00
2018-09-19T06:11:14.613Z,2904.00
2018-09-19T06:12:14.808Z,2984.00
2018-09-19T06:13:14.948Z,3060.00
2018-09-19T06:14:15.116Z,3180.00
2018-09-19T06:15:15.349Z,3252.00
2018-09-19T06:16:15.454Z,3288.00
2018-09-19T06:17:15.615Z,3312.00
2018-09-19T06:18:15.856Z,3328.00
2018-09-19T06:19:16.023Z,3332.00
2018-09-19T06:20:16.167Z,3340.00
2018-09-19T06:21:16.393Z,3348.00
2018-09-19T06:22:16.459Z,3344.00
2018-09-19T06:23:16.584Z,3336.00
2018-09-19T06:24:16.761Z,3328.00
2018-09-19T06:25:16.945Z,3332.00
2018-09-19T06:26:17.195Z,3360.00
2018-09-19T06:27:17.403Z,3400.00
2018-09-19T06:28:17.562Z,3432.00
2018-09-19T06:29:17.758Z,3456.00
2018-09-19T06:30:17.844Z,3476.00
2018-09-19T06:31:18.019Z,3484.00
2018-09-19T06:32:18.164Z,3480.00
2018-09-19T06:33:18.426Z,3480.00
2018-09-19T06:34:18.516Z,3488.00
2018-09-19T06:35:18.747Z,3500.00
2018-09-19T06:36:18.906Z,3488.00
2018-09-19T06:37:19.079Z,3448.00
2018-09-19T06:38:19.325Z,3280.00
2018-09-19T06:39:19.438Z,3552.00
2018-09-19T06:40:19.608Z,3492.00
2018-09-19T06:41:19.766Z,3484.00
2018-09-19T06:42:19.901Z,3620.00
2018-09-19T06:43:20.057Z,3560.00
2018-09-19T06:44:20.253Z,3580.00
2018-09-19T06:45:20.385Z,3596.00
2018-09-19T06:46:20.575Z,3664.00
2018-09-19T06:47:20.723Z,3744.00
2018-09-19T06:48:20.902Z,3832.00
2018-09-19T06:49:21.144Z,3956.00
2018-09-19T06:50:21.335Z,4292.00
2018-09-19T06:51:21.502Z,4016.00
2018-09-19T06:52:21.663Z,4012.00
2018-09-19T06:53:21.843Z,4204.00
2018-09-19T06:54:22.035Z,4412.00
2018-09-19T06:55:22.089Z,4276.00
2018-09-19T06:56:22.373Z,4120.00
2018-09-19T06:57:22.509Z,4264.00
2018-09-19T06:58:22.626Z,4724.00
2018-09-19T06:59:22.777Z,4800.00
2018-09-19T07:00:22.968Z,4820.00
2018-09-19T07:01:23.174Z,4848.00
2018-09-19T07:02:23.321Z,4880.00
2018-09-19T07:03:23.425Z,4908.00
2018-09-19T07:04:23.666Z,4960.00
2018-09-19T07:05:23.820Z,5032.00
2018-09-19T07:06:24.006Z,5092.00
2018-09-19T07:07:24.120Z,5136.00
2018-09-19T07:08:24.338Z,5156.00
2018-09-19T07:09:24.424Z,5160.00
2018-09-19T07:10:24.783Z,5160.00
2018-09-19T07:11:24.845Z,5172.00
2018-09-19T07:12:24.925Z,5212.00
2018-09-19T07:13:25.115Z,5284.00
2018-09-19T07:14:25.365Z,5328.00
2018-09-19T07:15:25.475Z,5368.00
2018-09-19T07:16:25.595Z,5352.00
2018-09-19T07:17:25.809Z,4928.00
2018-09-19T07:18:25.991Z,4980.00
2018-09-19T07:19:26.199Z,5336.00
2018-09-19T07:20:26.268Z,5552.00
2018-09-19T07:21:26.465Z,5616.00
2018-09-19T07:22:26.669Z,5688.00
2018-09-19T07:23:26.849Z,5724.00
2018-09-19T07:24:26.999Z,5768.00
2018-09-19T07:25:27.181Z,5828.00
2018-09-19T07:26:27.308Z,5864.00
2018-09-19T07:27:27.494Z,5884.00
2018-09-19T07:28:27.725Z,6060.00
2018-09-19T07:29:27.795Z,6360.00
2018-09-19T07:30:27.973Z,6540.00
2018-09-19T07:31:28.139Z,6612.00
2018-09-19T07:32:28.351Z,6700.00
2018-09-19T07:33:28.497Z,6812.00
2018-09-19T07:34:28.602Z,6892.00
2018-09-19T07:35:28.832Z,6984.00
2018-09-19T07:36:28.938Z,7088.00
2018-09-19T07:37:29.188Z,7184.00
2018-09-19T07:38:29.418Z,7280.00
2018-09-19T07:39:29.522Z,7448.00
2018-09-19T07:40:29.650Z,7580.00
2018-09-19T07:41:29.835Z,7672.00
2018-09-19T07:42:30.045Z,7844.00
2018-09-19T07:43:30.118Z,7988.00
2018-09-19T07:44:30.313Z,8144.00
2018-09-19T07:45:30.550Z,8284.00
2018-09-19T07:46:30.765Z,8432.00
2018-09-19T07:47:30.935Z,8680.00
2018-09-19T07:48:31.054Z,8808.00
2018-09-19T07:49:31.139Z,8932.00
2018-09-19T07:50:31.341Z,9256.00
2018-09-19T07:51:31.561Z,9480.00
2018-09-19T07:52:31.694Z,9212.00
2018-09-19T07:53:31.851Z,9040.00
2018-09-19T07:54:32.052Z,9260.00
2018-09-19T07:55:32.242Z,9828.00
2018-09-19T07:56:32.412Z,10344.00
2018-09-19T07:57:32.558Z,10756.00
2018-09-19T07:58:32.756Z,10784.00
2018-09-19T07:59:33.022Z,10404.00
2018-09-19T08:00:33.247Z,10448.00
2018-09-19T08:01:33.384Z,11024.00
2018-09-19T08:02:33.515Z,11316.00
2018-09-19T08:03:33.670Z,11216.00
2018-09-19T08:04:33.863Z,11376.00
2018-09-19T08:05:33.989Z,11540.00
2018-09-19T08:06:34.235Z,11720.00
2018-09-19T08:07:34.426Z,12332.00
2018-09-19T08:08:34.548Z,11980.00
2018-09-19T08:09:35.111Z,12012.00
2018-09-19T08:10:34.958Z,13240.00
2018-09-19T08:11:35.150Z,13788.00
2018-09-19T08:12:35.402Z,13964.00
2018-09-19T08:13:35.473Z,13884.00
2018-09-19T08:14:35.768Z,14304.00
2018-09-19T08:15:35.931Z,14752.00
2018-09-19T08:16:36.035Z,15136.00
2018-09-19T08:17:36.215Z,14880.00
2018-09-19T08:18:36.417Z,15520.00
2018-09-19T08:19:36.568Z,16416.00
2018-09-19T08:20:36.722Z,16384.00
2018-09-19T08:21:36.969Z,16640.00
2018-09-19T08:22:37.224Z,17248.00
2018-09-19T08:23:37.412Z,17312.00
2018-09-19T08:24:37.540Z,17440.00
2018-09-19T08:25:37.724Z,18144.00
2018-09-19T08:26:37.873Z,18336.00
2018-09-19T08:27:38.054Z,18912.00
2018-09-19T08:28:38.224Z,18368.00
2018-09-19T08:29:38.438Z,20160.00
2018-09-19T08:30:38.598Z,20192.00
2018-09-19T08:31:38.748Z,18720.00
2018-09-19T08:32:38.921Z,20544.00
2018-09-19T08:33:39.105Z,21376.00
2018-09-19T08:34:39.290Z,22176.00
2018-09-19T08:35:39.531Z,21568.00
2018-09-19T08:36:39.697Z,22240.00
2018-09-19T08:37:39.775Z,22624.00
2018-09-19T08:38:40.091Z,24192.00
2018-09-19T08:39:40.292Z,24096.00
2018-09-19T08:40:40.473Z,24032.00
2018-09-19T08:41:40.659Z,25088.00
2018-09-19T08:42:40.919Z,25504.00
2018-09-19T08:43:41.065Z,25344.00
2018-09-19T08:44:41.248Z,26464.00
2018-09-19T08:45:41.413Z,25952.00
2018-09-19T08:46:41.576Z,26304.00
2018-09-19T08:47:41.763Z,27424.00
2018-09-19T08:48:41.967Z,26720.00
2018-09-19T08:49:42.104Z,27488.00
2018-09-19T08:50:42.395Z,27520.00
2018-09-19T08:51:42.445Z,27744.00
2018-09-19T08:52:43.543Z,27904.00
2018-09-19T08:53:42.802Z,28320.00
2018-09-19T08:54:43.024Z,29568.00
2018-09-19T08:55:43.153Z,28480.00
2018-09-19T08:56:43.452Z,29120.00
2018-09-19T08:57:43.642Z,27040.00
2018-09-19T08:58:43.753Z,30112.00
2018-09-19T08:59:43.964Z,33152.00
2018-09-19T09:00:44.103Z,32608.00
2018-09-19T09:01:44.213Z,34336.00
2018-09-19T09:02:44.504Z,34528.00
2018-09-19T09:03:44.708Z,31264.00
2018-09-19T09:04:44.921Z,31680.00
2018-09-19T09:05:45.029Z,32704.00
2018-09-19T09:06:45.439Z,32800.00
2018-09-19T09:07:45.412Z,35008.00
2018-09-19T09:08:45.607Z,33760.00
2018-09-19T09:09:46.000Z,33568.00
2018-09-19T09:10:46.086Z,35328.00
2018-09-19T09:11:46.321Z,34368.00
2018-09-19T09:12:46.545Z,36160.00
2018-09-19T09:13:46.765Z,36992.00
2018-09-19T09:14:46.885Z,37024.00
2018-09-19T09:15:47.062Z,38976.00
2018-09-19T09:16:47.239Z,40128.00
2018-09-19T09:17:47.331Z,41280.00
2018-09-19T09:18:47.549Z,40864.00
2018-09-19T09:19:47.836Z,40672.00
2018-09-19T09:20:48.056Z,41504.00
2018-09-19T09:21:48.207Z,41984.00
2018-09-19T09:22:48.361Z,42560.00
2018-09-19T09:23:48.533Z,43200.00
2018-09-19T09:24:48.698Z,45184.00
2018-09-19T09:25:48.919Z,44544.00
2018-09-19T09:26:49.104Z,43040.00
2018-09-19T09:27:49.221Z,43328.00
2018-09-19T09:28:49.393Z,43648.00
2018-09-19T09:29:49.688Z,48288.00
2018-09-19T09:30:49.821Z,50368.00
2018-09-19T09:31:49.998Z,45248.00
2018-09-19T09:32:50.277Z,42848.00
2018-09-19T09:33:50.408Z,47296.00
2018-09-19T09:34:51.097Z,49760.00
2018-09-19T09:35:50.773Z,47776.00
2018-09-19T09:36:50.983Z,47520.00
2018-09-19T09:37:51.151Z,48992.00
2018-09-19T09:38:51.335Z,50080.00
2018-09-19T09:39:51.513Z,46368.00
2018-09-19T09:40:51.728Z,47488.00
2018-09-19T09:41:51.953Z,53984.00
2018-09-19T09:42:52.138Z,47456.00
2018-09-19T09:43:52.300Z,45856.00
2018-09-19T09:44:52.409Z,57952.00
2018-09-19T09:45:52.617Z,57760.00
2018-09-19T09:46:52.840Z,49280.00
2018-09-19T09:47:53.038Z,45120.00
2018-09-19T09:48:53.148Z,44288.00
2018-09-19T09:49:53.402Z,46016.00
2018-09-19T09:50:53.483Z,50048.00
2018-09-19T09:51:53.789Z,56096.00
2018-09-19T09:52:54.006Z,53696.00
2018-09-19T09:53:54.091Z,50240.00
2018-09-19T09:54:54.291Z,57056.00
2018-09-19T09:55:54.571Z,58720.00
2018-09-19T09:56:54.740Z,55328.00
2018-09-19T09:57:54.940Z,57632.00
2018-09-19T09:58:55.108Z,57632.00
2018-09-19T09:59:55.279Z,54848.00
2018-09-19T10:00:55.395Z,57088.00
2018-09-19T10:01:55.605Z,60608.00
2018-09-19T10:02:55.784Z,58880.00
2018-09-19T10:03:55.972Z,57184.00
2018-09-19T10:04:56.214Z,60576.00
2018-09-19T10:05:56.355Z,60800.00
2018-09-19T10:06:56.506Z,59936.00
2018-09-19T10:07:56.767Z,63744.00
2018-09-19T10:08:56.915Z,67712.00
2018-09-19T10:09:57.097Z,66048.00
2018-09-19T10:10:57.194Z,62720.00
2018-09-19T10:11:57.466Z,63552.00
2018-09-19T10:12:57.668Z,66400.00
2018-09-19T10:13:57.977Z,64032.00
2018-09-19T10:14:58.205Z,62016.00
2018-09-19T10:15:58.259Z,60768.00
2018-09-19T10:16:58.445Z,56512.00
2018-09-19T10:17:58.618Z,55744.00
2018-09-19T10:18:58.830Z,57472.00
2018-09-19T10:19:59.009Z,60608.00
2018-09-19T10:20:59.263Z,65280.00
2018-09-19T10:21:59.506Z,67456.00
2018-09-19T10:22:59.627Z,64992.00
2018-09-19T10:23:59.849Z,60544.00
2018-09-19T10:25:00.027Z,62784.00
2018-09-19T10:26:00.202Z,68512.00
2018-09-19T10:27:00.433Z,69280.00
2018-09-19T10:28:00.571Z,65760.00
2018-09-19T10:29:00.751Z,64192.00
2018-09-19T10:30:01.069Z,63936.00
2018-09-19T10:31:01.193Z,65856.00
2018-09-19T10:32:01.368Z,69600.00
2018-09-19T10:33:01.619Z,68768.00
2018-09-19T10:34:01.808Z,64704.00
2018-09-19T10:35:01.947Z,64512.00
2018-09-19T10:36:02.155Z,70208.00
2018-09-19T10:37:02.341Z,71776.00
2018-09-19T10:38:02.483Z,67776.00
2018-09-19T10:39:02.677Z,66208.00
2018-09-19T10:40:02.826Z,69344.00
2018-09-19T10:41:02.996Z,72096.00
2018-09-19T10:42:03.193Z,67712.00
2018-09-19T10:43:03.438Z,64416.00
2018-09-19T10:44:03.701Z,69440.00
2018-09-19T10:45:03.752Z,70784.00
2018-09-19T10:46:03.984Z,67488.00
2018-09-19T10:47:04.129Z,65152.00
2018-09-19T10:48:04.266Z,66784.00
2018-09-19T10:49:04.512Z,64768.00
2018-09-19T10:50:04.682Z,64128.00
2018-09-19T10:51:05.497Z,69824.00
2018-09-19T10:52:05.046Z,75360.00
2018-09-19T10:53:05.181Z,23136.00
2018-09-19T10:54:05.373Z,59072.00
2018-09-19T10:55:05.572Z,73792.00
2018-09-19T10:56:05.735Z,67584.00
2018-09-19T10:57:05.992Z,63680.00
2018-09-19T10:58:06.087Z,68704.00
2018-09-19T10:59:06.305Z,72672.00
2018-09-19T11:00:06.476Z,74752.00
2018-09-19T11:01:06.757Z,70880.00
2018-09-19T11:02:06.897Z,42464.00
2018-09-19T11:03:07.167Z,66784.00
2018-09-19T11:04:07.275Z,65952.00
2018-09-19T11:05:07.463Z,75872.00
2018-09-19T11:06:07.654Z,18176.00
2018-09-19T11:07:07.856Z,72864.00
2018-09-19T11:08:07.978Z,51328.00
2018-09-19T11:09:08.167Z,72128.00
2018-09-19T11:10:08.499Z,79776.00
2018-09-19T11:11:08.590Z,22304.00
2018-09-19T11:12:08.761Z,21888.00
2018-09-19T11:13:08.987Z,72288.00
2018-09-19T11:14:09.154Z,34464.00
2018-09-19T11:15:09.348Z,19616.00
2018-09-19T11:16:09.562Z,75136.00
2018-09-19T11:17:09.795Z,75040.00
2018-09-19T11:18:09.859Z,73696.00
2018-09-19T11:19:10.153Z,78752.00
2018-09-19T11:20:10.224Z,79840.00
2018-09-19T11:21:10.455Z,73056.00
2018-09-19T11:22:10.686Z,67488.00
2018-09-19T11:23:10.752Z,71424.00
2018-09-19T11:24:10.986Z,77088.00
2018-09-19T11:25:11.206Z,77216.00
2018-09-19T11:26:11.411Z,77120.00
2018-09-19T11:27:11.521Z,79872.00
2018-09-19T11:28:11.770Z,80416.00
2018-09-19T11:29:11.939Z,75712.00
2018-09-19T11:30:12.068Z,19328.00
2018-09-19T11:31:12.315Z,75840.00
2018-09-19T11:32:12.546Z,79552.00
2018-09-19T11:33:12.768Z,78144.00
2018-09-19T11:34:12.912Z,74496.00
2018-09-19T11:35:13.096Z,70400.00
2018-09-19T11:36:13.278Z,68096.00
2018-09-19T11:37:13.397Z,73120.00
2018-09-19T11:38:13.672Z,77664.00
2018-09-19T11:39:13.730Z,81856.00
2018-09-19T11:40:14.014Z,75616.00
2018-09-19T11:41:14.159Z,66656.00
2018-09-19T11:42:14.386Z,64768.00
2018-09-19T11:43:14.499Z,68128.00
2018-09-19T11:44:14.783Z,74112.00
2018-09-19T11:45:14.880Z,74752.00
2018-09-19T11:46:15.029Z,71680.00
2018-09-19T11:47:15.308Z,70560.00
2018-09-19T11:48:15.463Z,77088.00
2018-09-19T11:49:15.652Z,83744.00
2018-09-19T11:50:15.865Z,78496.00
2018-09-19T11:51:16.053Z,77376.00
2018-09-19T11:52:16.268Z,74848.00
2018-09-19T11:53:16.394Z,74464.00
2018-09-19T11:54:16.561Z,84032.00
2018-09-19T11:55:16.792Z,81440.00
2018-09-19T11:56:16.974Z,51456.00
2018-09-19T11:57:17.217Z,80512.00
2018-09-19T11:58:17.301Z,22336.00
2018-09-19T11:59:17.520Z,25792.00
2018-09-19T12:00:17.673Z,29472.00
2018-09-19T12:01:17.873Z,78976.00
2018-09-19T12:02:18.124Z,79776.00
2018-09-19T12:03:18.210Z,83616.00
2018-09-19T12:04:18.404Z,80864.00
2018-09-19T12:05:18.621Z,82400.00
2018-09-19T12:06:18.838Z,81376.00
2018-09-19T12:07:19.000Z,85440.00
2018-09-19T12:08:19.247Z,89760.00
2018-09-19T12:09:19.362Z,90400.00
2018-09-19T12:10:19.478Z,23168.00
2018-09-19T12:11:19.750Z,84320.00
2018-09-19T12:12:19.972Z,27904.00
2018-09-19T12:13:20.109Z,20512.00
2018-09-19T12:14:20.315Z,26528.00
2018-09-19T12:15:20.555Z,86656.00
2018-09-19T12:16:20.664Z,87008.00
2018-09-19T12:17:20.912Z,20032.00
2018-09-19T12:18:21.062Z,59552.00
2018-09-19T12:19:21.219Z,88128.00
2018-09-19T12:20:21.499Z,91968.00
2018-09-19T12:21:21.740Z,92832.00
2018-09-19T12:22:21.831Z,90944.00
2018-09-19T12:23:22.085Z,88736.00
2018-09-19T12:24:22.161Z,87040.00
2018-09-19T12:25:22.406Z,84224.00
2018-09-19T12:26:22.680Z,78432.00
2018-09-19T12:27:22.760Z,76544.00
2018-09-19T12:28:22.974Z,78304.00
2018-09-19T12:29:23.086Z,88000.00
2018-09-19T12:30:23.346Z,87296.00
2018-09-19T12:31:23.599Z,25664.00
2018-09-19T12:32:23.639Z,80864.00
2018-09-19T12:33:23.867Z,32416.00
2018-09-19T12:34:24.079Z,85536.00
2018-09-19T12:35:24.204Z,46752.00
2018-09-19T12:36:24.377Z,89280.00
2018-09-19T12:37:24.641Z,81248.00
2018-09-19T12:38:24.793Z,82624.00
2018-09-19T12:39:25.071Z,88864.00
2018-09-19T12:40:25.180Z,92064.00
2018-09-19T12:41:25.304Z,88768.00
2018-09-19T12:42:26.001Z,81216.00
2018-09-19T12:43:25.692Z,84256.00
2018-09-19T12:44:26.628Z,87840.00
2018-09-19T12:45:26.026Z,90336.00
2018-09-19T12:46:26.165Z,72096.00
2018-09-19T12:47:26.489Z,78944.00
2018-09-19T12:48:26.545Z,48512.00
2018-09-19T12:49:26.730Z,19136.00
2018-09-19T12:50:26.938Z,92320.00
2018-09-19T12:51:27.170Z,70432.00
2018-09-19T12:52:27.307Z,44512.00
2018-09-19T12:53:27.599Z,94976.00
2018-09-19T12:54:27.658Z,96352.00
2018-09-19T12:55:27.839Z,91232.00
2018-09-19T12:56:28.034Z,87232.00
2018-09-19T12:57:28.159Z,91424.00
2018-09-19T12:58:28.383Z,20064.00
2018-09-19T12:59:28.519Z,95552.00
2018-09-19T13:00:28.772Z,19680.00
2018-09-19T13:01:28.936Z,47264.00
2018-09-19T13:02:29.134Z,27392.00
2018-09-19T13:03:29.295Z,32576.00
2018-09-19T13:04:29.491Z,88064.00
2018-09-19T13:05:29.774Z,83776.00
2018-09-19T13:06:29.939Z,79360.00
2018-09-19T13:07:30.105Z,78368.00
2018-09-19T13:08:30.230Z,80128.00
2018-09-19T13:09:30.491Z,84576.00
2018-09-19T13:10:30.796Z,87168.00
2018-09-19T13:11:32.733Z,87872.00
2018-09-19T13:12:31.541Z,88992.00
2018-09-19T13:13:31.121Z,92672.00
2018-09-19T13:14:32.039Z,95872.00
2018-09-19T13:15:31.987Z,100224.00
2018-09-19T13:16:31.833Z,101664.00
2018-09-19T13:17:32.624Z,99136.00
2018-09-19T13:18:33.377Z,91296.00
2018-09-19T13:19:33.202Z,83840.00
2018-09-19T13:20:32.463Z,79680.00
2018-09-19T13:21:32.629Z,85504.00
2018-09-19T13:22:32.950Z,83392.00
2018-09-19T13:23:33.149Z,85216.00
2018-09-19T13:24:33.289Z,82560.00
2018-09-19T13:25:33.491Z,87616.00
2018-09-19T13:26:33.681Z,82976.00
2018-09-19T13:27:33.894Z,88192.00
2018-09-19T13:28:34.090Z,74528.00
2018-09-19T13:29:34.252Z,74656.00
2018-09-19T13:30:34.452Z,73920.00
2018-09-19T13:31:34.640Z,77696.00
2018-09-19T13:32:34.853Z,19712.00
2018-09-19T13:33:34.969Z,77088.00
2018-09-19T13:34:35.277Z,24032.00
2018-09-19T13:35:35.398Z,20192.00
2018-09-19T13:36:35.600Z,77088.00
2018-09-19T13:37:35.810Z,75584.00
2018-09-19T13:38:35.976Z,81504.00
2018-09-19T13:39:36.173Z,83072.00
2018-09-19T13:40:36.264Z,78272.00
2018-09-19T13:41:36.522Z,79296.00
2018-09-19T13:42:36.741Z,81056.00
2018-09-19T13:43:36.840Z,78272.00
2018-09-19T13:44:37.153Z,77504.00
2018-09-19T13:45:37.303Z,81728.00
2018-09-19T13:46:37.492Z,78912.00
2018-09-19T13:47:37.767Z,66144.00
2018-09-19T13:48:37.840Z,60672.00
2018-09-19T13:49:38.126Z,64128.00
2018-09-19T13:50:38.334Z,67264.00
2018-09-19T13:51:38.470Z,59936.00
2018-09-19T13:52:38.657Z,62144.00
2018-09-19T13:53:38.772Z,63520.00
2018-09-19T13:54:38.997Z,65152.00
2018-09-19T13:55:39.205Z,60864.00
2018-09-19T13:56:39.288Z,58336.00
2018-09-19T13:57:39.546Z,63456.00
2018-09-19T13:58:39.699Z,73024.00
2018-09-19T13:59:39.850Z,76256.00
2018-09-19T14:00:39.997Z,72032.00
2018-09-19T14:01:40.292Z,72160.00
2018-09-19T14:02:40.523Z,71392.00
2018-09-19T14:03:40.587Z,12656.00
2018-09-19T14:04:40.872Z,55264.00
2018-09-19T14:05:40.985Z,19616.00
2018-09-19T14:06:41.192Z,60832.00
2018-09-19T14:07:41.399Z,74976.00
2018-09-19T14:08:41.614Z,69728.00
2018-09-19T14:09:41.770Z,26080.00
2018-09-19T14:10:41.858Z,79360.00
2018-09-19T14:11:42.062Z,56128.00
2018-09-19T14:12:42.256Z,12684.00
2018-09-19T14:13:42.491Z,12484.00
2018-09-19T14:14:42.671Z,14136.00
2018-09-19T14:15:42.790Z,59232.00
2018-09-19T14:16:42.991Z,59744.00
2018-09-19T14:17:43.182Z,62688.00
2018-09-19T14:18:43.360Z,66496.00
2018-09-19T14:19:43.616Z,65824.00
2018-09-19T14:20:43.760Z,56544.00
2018-09-19T14:21:43.869Z,53024.00
2018-09-19T14:22:44.209Z,60416.00
2018-09-19T14:23:44.289Z,68480.00
2018-09-19T14:24:44.460Z,69984.00
2018-09-19T14:25:44.631Z,71456.00
2018-09-19T14:26:44.885Z,70880.00
2018-09-19T14:27:45.138Z,10804.00
2018-09-19T14:28:45.221Z,23968.00
2018-09-19T14:29:45.465Z,68128.00
2018-09-19T14:30:45.648Z,66400.00
2018-09-19T14:31:45.818Z,67424.00
2018-09-19T14:32:46.093Z,68736.00
2018-09-19T14:33:46.183Z,74240.00
2018-09-19T14:34:46.344Z,74720.00
2018-09-19T14:35:46.597Z,73568.00
2018-09-19T14:36:46.870Z,69440.00
2018-09-19T14:37:46.903Z,65152.00
2018-09-19T14:38:47.007Z,17160.00
2018-09-19T14:39:47.282Z,31776.00
2018-09-19T14:40:47.446Z,27584.00
2018-09-19T14:41:47.694Z,13280.00
2018-09-19T14:42:47.777Z,9652.00
2018-09-19T14:43:47.910Z,9152.00
2018-09-19T14:44:48.161Z,25824.00
2018-09-19T14:45:48.350Z,11200.00
2018-09-19T14:46:48.549Z,10660.00
2018-09-19T14:47:48.749Z,9760.00
2018-09-19T14:48:48.970Z,8996.00
2018-09-19T14:49:49.203Z,9112.00
2018-09-19T14:50:49.350Z,8924.00
2018-09-19T14:51:49.477Z,9268.00
2018-09-19T14:52:49.689Z,9632.00
2018-09-19T14:53:49.846Z,9220.00
2018-09-19T14:54:50.056Z,10404.00
2018-09-19T14:55:50.197Z,11460.00
2018-09-19T14:56:50.422Z,14200.00
2018-09-19T14:57:50.689Z,12680.00
2018-09-19T14:58:50.807Z,12524.00
2018-09-19T14:59:51.042Z,12768.00
2018-09-19T15:00:51.139Z,12896.00
2018-09-19T15:01:51.397Z,12400.00
2018-09-19T15:02:51.618Z,12360.00
2018-09-19T15:03:51.742Z,12660.00
2018-09-19T15:04:51.960Z,11684.00
2018-09-19T15:05:52.108Z,12236.00
2018-09-19T15:06:52.251Z,27488.00
2018-09-19T15:07:52.607Z,16128.00
2018-09-19T15:08:52.643Z,50592.00